Time;durP1;ratioP1;P1;durP2;ratioP2;P2;SDS_P1;SDS_P2;PMS_P1;PMS_P2;Temp;Humidity;BMP_temperature;BMP_pressure;BME280_temperature;BME280_humidity;BME280_pressure;Samples;Min_cycle;Max_cycle;Signal;HPM_P1;HPM_P2
2021/10/08 00:01:02;;;;;;;13.97;5.40;;;6.90;99.90;;;;;;4157392;28;20095;-62
2021/10/08 00:03:03;;;;;;;20.07;6.67;;;6.90;99.90;;;;;;4157220;28;20056;-62
2021/10/08 00:05:04;;;;;;;12.83;5.03;;;6.90;99.90;;;;;;4157701;28;20087;-68
2021/10/08 00:07:06;;;;;;;14.50;5.47;;;6.90;99.90;;;;;;4174046;28;20021;-63
2021/10/08 00:09:07;;;;;;;13.80;6.57;;;6.90;99.90;;;;;;4172683;28;20037;-63
2021/10/08 00:11:09;;;;;;;17.47;6.60;;;6.90;99.90;;;;;;4173834;28;20028;-61
2021/10/08 00:13:10;;;;;;;15.80;6.03;;;6.90;99.90;;;;;;4172727;28;20025;-62
2021/10/08 00:15:13;;;;;;;11.57;5.93;;;6.90;99.90;;;;;;4172300;28;20079;-61
2021/10/08 00:17:14;;;;;;;18.73;6.73;;;6.90;99.90;;;;;;4155749;28;20792;-66
2021/10/08 00:19:15;;;;;;;12.13;5.83;;;6.90;99.90;;;;;;4157529;28;20037;-64
2021/10/08 00:21:17;;;;;;;16.93;5.93;;;6.80;99.90;;;;;;4155782;28;20030;-62
2021/10/08 00:23:18;;;;;;;13.57;5.53;;;6.80;99.90;;;;;;4157270;28;20041;-63
2021/10/08 00:25:19;;;;;;;11.63;5.80;;;6.80;99.90;;;;;;4157699;28;20041;-64
2021/10/08 00:27:20;;;;;;;14.87;5.40;;;6.80;99.90;;;;;;4173877;28;20087;-62
2021/10/08 00:29:22;;;;;;;21.80;8.13;;;6.80;99.90;;;;;;4172687;28;20078;-62
2021/10/08 00:31:23;;;;;;;18.63;6.67;;;6.80;99.90;;;;;;4165421;28;20092;-63
2021/10/08 00:33:24;;;;;;;10.90;5.90;;;6.80;99.90;;;;;;4156542;28;20580;-67
2021/10/08 00:35:25;;;;;;;16.23;5.83;;;6.80;99.90;;;;;;4156441;28;20029;-62
2021/10/08 00:37:26;;;;;;;14.47;6.07;;;6.80;99.90;;;;;;4156758;28;20029;-64
2021/10/08 00:39:27;;;;;;;13.93;5.17;;;6.70;99.90;;;;;;4155359;28;20037;-64
2021/10/08 00:41:28;;;;;;;15.60;6.40;;;6.80;99.90;;;;;;4164049;28;20079;-68
2021/10/08 00:43:29;;;;;;;11.40;4.97;;;6.70;99.90;;;;;;4172499;28;20021;-63
2021/10/08 00:45:31;;;;;;;9.40;5.00;;;6.80;99.90;;;;;;4173854;28;20477;-63
2021/10/08 00:47:32;;;;;;;17.53;6.20;;;6.70;99.90;;;;;;4172351;28;20037;-62
2021/10/08 00:49:33;;;;;;;17.77;6.17;;;6.70;99.90;;;;;;4173272;28;20465;-62
2021/10/08 00:51:34;;;;;;;12.30;5.47;;;6.70;99.90;;;;;;4170204;28;20086;-64
2021/10/08 00:53:36;;;;;;;16.90;6.17;;;6.60;99.90;;;;;;4173937;28;20037;-63
2021/10/08 00:55:42;;;;;;;19.93;5.70;;;6.60;99.90;;;;;;4171587;28;20103;-62
2021/10/08 00:57:45;;;;;;;13.17;6.57;;;6.50;99.90;;;;;;4173213;28;20036;-66
2021/10/08 00:59:47;;;;;;;14.73;5.70;;;6.50;99.90;;;;;;4160239;28;20796;-65
2021/10/08 01:01:50;;;;;;;18.97;5.73;;;6.40;99.90;;;;;;4156513;28;20037;-63
2021/10/08 01:03:52;;;;;;;12.10;5.93;;;6.40;99.90;;;;;;4155871;28;20739;-65
2021/10/08 01:05:53;;;;;;;15.77;6.10;;;6.40;99.90;;;;;;4156777;28;20071;-67
2021/10/08 01:07:54;;;;;;;29.83;7.07;;;6.40;99.90;;;;;;4156207;28;20037;-62
2021/10/08 01:09:55;;;;;;;10.83;5.17;;;6.40;99.90;;;;;;4167596;28;21318;-68
2021/10/08 01:11:56;;;;;;;14.33;5.43;;;6.40;99.90;;;;;;4173421;28;20041;-63
2021/10/08 01:14:02;;;;;;;14.83;6.03;;;6.40;99.90;;;;;;4172325;28;20320;-65
2021/10/08 01:16:03;;;;;;;13.43;5.70;;;6.30;99.90;;;;;;4173273;28;20514;-65
2021/10/08 01:18:05;;;;;;;16.17;5.40;;;6.30;99.90;;;;;;4171830;28;20482;-63
2021/10/08 01:20:11;;;;;;;11.20;5.47;;;6.20;99.90;;;;;;4160067;28;20796;-65
2021/10/08 01:22:13;;;;;;;15.23;6.90;;;6.20;99.90;;;;;;4155640;28;20286;-62
2021/10/08 01:24:14;;;;;;;11.67;5.33;;;6.20;99.90;;;;;;4157045;28;20276;-65
2021/10/08 01:26:16;;;;;;;14.63;6.10;;;6.20;99.90;;;;;;4155276;28;20267;-66
2021/10/08 01:28:19;;;;;;;10.33;5.20;;;6.20;99.90;;;;;;4158271;28;20470;-62
2021/10/08 01:30:21;;;;;;;18.87;5.10;;;6.30;99.90;;;;;;4171619;28;20262;-63
2021/10/08 01:32:24;;;;;;;11.70;5.67;;;6.20;99.90;;;;;;4172915;28;20655;-63
2021/10/08 01:34:25;;;;;;;9.60;5.80;;;6.20;99.90;;;;;;4171408;28;20450;-69
2021/10/08 01:36:27;;;;;;;15.37;5.07;;;6.20;99.90;;;;;;4172676;28;20037;-61
2021/10/08 01:38:28;;;;;;;13.90;6.03;;;6.10;99.90;;;;;;4170499;28;20282;-62
2021/10/08 01:40:29;;;;;;;14.03;6.53;;;6.10;99.90;;;;;;4172458;28;20316;-63
2021/10/08 01:42:30;;;;;;;14.97;7.30;;;6.00;99.90;;;;;;4204437;28;20044;-62
2021/10/08 01:44:31;;;;;;;13.13;6.13;;;6.00;99.90;;;;;;4172025;28;20028;-64
2021/10/08 01:46:32;;;;;;;13.40;5.67;;;6.00;99.90;;;;;;4157101;28;20333;-63
2021/10/08 01:48:34;;;;;;;13.30;5.40;;;6.00;99.90;;;;;;4155081;28;20270;-63
2021/10/08 01:50:35;;;;;;;14.80;6.27;;;6.00;99.90;;;;;;4157046;28;20275;-63
2021/10/08 01:52:36;;;;;;;11.87;5.57;;;5.90;99.90;;;;;;4155878;28;20270;-63
2021/10/08 01:54:37;;;;;;;14.93;6.37;;;5.90;99.90;;;;;;4171381;28;20281;-62
2021/10/08 01:56:44;;;;;;;13.67;5.60;;;5.90;99.90;;;;;;4174163;28;20891;-66
2021/10/08 01:58:45;;;;;;;10.60;5.13;;;5.80;99.90;;;;;;4176391;28;20324;-62
2021/10/08 02:00:46;;;;;;;14.63;5.80;;;5.80;99.90;;;;;;4168583;28;20906;-62
2021/10/08 02:02:47;;;;;;;15.10;5.43;;;5.90;99.90;;;;;;4159799;28;20271;-64
2021/10/08 02:04:48;;;;;;;13.00;5.90;;;5.90;99.90;;;;;;4158203;28;20295;-64
2021/10/08 02:06:50;;;;;;;16.13;5.00;;;5.90;99.90;;;;;;4159360;28;20320;-66
2021/10/08 02:08:51;;;;;;;17.97;6.03;;;5.80;99.90;;;;;;4158564;28;20313;-62
2021/10/08 02:10:52;;;;;;;15.43;5.73;;;5.90;99.90;;;;;;4159955;28;20309;-66
2021/10/08 02:12:53;;;;;;;15.57;6.13;;;5.90;99.90;;;;;;4158626;28;20325;-63
2021/10/08 02:14:54;;;;;;;13.80;6.40;;;5.80;99.90;;;;;;4158670;28;20336;-63
2021/10/08 02:16:55;;;;;;;13.63;5.13;;;5.90;99.90;;;;;;4161699;28;20317;-65
2021/10/08 02:18:57;;;;;;;13.47;6.23;;;5.80;99.90;;;;;;4174683;28;20316;-65
2021/10/08 02:20:58;;;;;;;12.23;5.90;;;5.80;99.90;;;;;;4175693;28;20688;-62
2021/10/08 02:22:59;;;;;;;14.40;5.70;;;5.70;99.90;;;;;;4174190;28;20323;-62
2021/10/08 02:25:00;;;;;;;20.37;6.43;;;5.70;99.90;;;;;;4173820;28;20301;-64
2021/10/08 02:27:01;;;;;;;10.87;5.70;;;5.70;99.90;;;;;;4174494;28;20266;-67
2021/10/08 02:29:02;;;;;;;15.40;6.87;;;5.60;99.90;;;;;;4176059;28;20316;-62
2021/10/08 02:31:04;;;;;;;14.80;6.23;;;5.60;99.90;;;;;;4174487;28;20336;-62
2021/10/08 02:33:05;;;;;;;17.40;6.63;;;5.60;99.90;;;;;;4161531;28;20325;-62
2021/10/08 02:35:07;;;;;;;12.60;5.63;;;5.50;99.90;;;;;;4157732;28;20329;-62
2021/10/08 02:37:08;;;;;;;13.60;6.23;;;5.50;99.90;;;;;;4158977;28;20267;-64
2021/10/08 02:39:09;;;;;;;20.17;6.67;;;5.50;99.90;;;;;;4158710;28;20266;-61
2021/10/08 02:41:10;;;;;;;15.30;6.57;;;5.40;99.90;;;;;;4158494;28;20271;-70
2021/10/08 02:43:13;;;;;;;15.87;7.47;;;5.40;99.90;;;;;;4158203;28;20267;-62
2021/10/08 02:45:15;;;;;;;13.33;5.83;;;5.40;99.90;;;;;;4157920;28;20325;-64
2021/10/08 02:47:16;;;;;;;16.97;6.47;;;5.40;99.90;;;;;;4158321;28;20279;-64
2021/10/08 02:49:21;;;;;;;19.20;6.50;;;5.40;99.90;;;;;;4158906;28;20832;-64
2021/10/08 02:51:22;;;;;;;13.07;5.90;;;5.40;99.90;;;;;;4158743;28;20252;-64
2021/10/08 02:53:23;;;;;;;16.67;6.40;;;5.40;99.90;;;;;;4157702;28;20263;-63
2021/10/08 02:55:24;;;;;;;11.10;6.23;;;5.30;99.90;;;;;;4158762;28;20333;-62
2021/10/08 02:57:26;;;;;;;18.20;6.87;;;5.30;99.90;;;;;;4157345;28;20274;-61
2021/10/08 02:59:28;;;;;;;15.20;7.20;;;5.30;99.90;;;;;;4159876;28;20317;-68
2021/10/08 03:01:29;;;;;;;14.40;5.97;;;5.30;99.90;;;;;;4157210;28;20691;-64
2021/10/08 03:03:30;;;;;;;12.13;6.57;;;5.30;99.90;;;;;;4158656;28;20340;-65
2021/10/08 03:05:31;;;;;;;18.30;7.10;;;5.40;99.90;;;;;;4156699;28;20294;-63
2021/10/08 03:07:33;;;;;;;18.20;6.77;;;5.40;99.90;;;;;;4158514;28;20360;-62
2021/10/08 03:09:34;;;;;;;18.67;7.10;;;5.30;99.90;;;;;;4157243;28;20405;-62
2021/10/08 03:11:36;;;;;;;20.93;6.70;;;5.30;99.90;;;;;;4159164;28;20344;-66
2021/10/08 03:13:37;;;;;;;14.20;6.77;;;5.30;99.90;;;;;;4157519;28;20255;-62
2021/10/08 03:15:38;;;;;;;12.97;6.53;;;5.30;99.90;;;;;;4157569;28;20258;-63
2021/10/08 03:17:39;;;;;;;13.33;6.90;;;5.30;99.90;;;;;;4157633;28;20283;-62
2021/10/08 03:19:40;;;;;;;28.83;8.20;;;5.40;99.90;;;;;;4157342;28;20266;-62
2021/10/08 03:21:42;;;;;;;20.53;7.83;;;5.30;99.90;;;;;;4159150;28;20270;-62
2021/10/08 03:23:43;;;;;;;18.80;9.60;;;5.30;99.90;;;;;;4157045;28;20317;-62
2021/10/08 03:25:44;;;;;;;24.50;8.83;;;5.30;99.90;;;;;;4158554;28;20307;-62
2021/10/08 03:27:45;;;;;;;17.67;7.37;;;5.30;99.90;;;;;;4156518;28;20274;-63
2021/10/08 03:29:46;;;;;;;12.10;6.53;;;5.30;99.90;;;;;;4173571;28;20274;-65
2021/10/08 03:31:47;;;;;;;14.37;6.17;;;5.30;99.90;;;;;;4156676;28;20329;-63
2021/10/08 03:33:49;;;;;;;14.70;6.37;;;5.30;99.90;;;;;;4158472;28;20313;-66
2021/10/08 03:35:50;;;;;;;16.77;6.17;;;5.30;99.90;;;;;;4171809;28;20361;-64
2021/10/08 03:38:08;;;;;;;15.03;7.10;;;5.30;99.90;;;;;;4158070;28;20940;-62
2021/10/08 03:40:12;;;;;;;15.93;6.30;;;5.30;99.90;;;;;;4171660;28;20328;-62
2021/10/08 03:42:17;;;;;;;14.60;7.07;;;5.30;99.90;;;;;;4161813;28;20278;-64
2021/10/08 03:44:18;;;;;;;17.43;7.43;;;5.30;99.90;;;;;;4157863;28;20277;-69
2021/10/08 03:46:19;;;;;;;15.83;7.23;;;5.20;99.90;;;;;;4158074;28;20291;-65
2021/10/08 03:48:38;;;;;;;13.23;6.80;;;5.20;99.90;;;;;;4156308;28;20255;-62
2021/10/08 03:50:40;;;;;;;17.13;8.97;;;5.30;99.90;;;;;;4158681;28;20273;-62
2021/10/08 03:52:41;;;;;;;18.87;7.60;;;5.30;99.90;;;;;;4172700;28;20293;-63
2021/10/08 03:54:42;;;;;;;20.67;7.47;;;5.20;99.90;;;;;;4174054;28;20754;-62
2021/10/08 03:56:45;;;;;;;24.30;7.63;;;5.30;99.90;;;;;;4173402;28;20341;-62
2021/10/08 03:58:46;;;;;;;17.50;7.37;;;5.20;99.90;;;;;;4173465;28;20316;-63
2021/10/08 04:00:48;;;;;;;17.13;6.97;;;5.20;99.90;;;;;;4171435;28;20684;-63
2021/10/08 04:02:49;;;;;;;15.70;6.97;;;5.10;99.90;;;;;;4171048;28;20286;-69
2021/10/08 04:04:50;;;;;;;17.97;6.80;;;5.20;99.90;;;;;;4173426;28;20665;-64
2021/10/08 04:06:51;;;;;;;16.60;6.97;;;5.10;99.90;;;;;;4166017;28;20612;-62
2021/10/08 04:08:53;;;;;;;16.57;7.80;;;5.20;99.90;;;;;;4156194;28;20325;-62
2021/10/08 04:10:54;;;;;;;16.97;7.77;;;5.20;99.90;;;;;;4155403;28;20267;-61
2021/10/08 04:12:55;;;;;;;17.97;7.33;;;5.20;99.90;;;;;;4163726;28;20761;-61
2021/10/08 04:14:56;;;;;;;20.33;7.77;;;5.20;99.90;;;;;;4169861;28;20600;-64
2021/10/08 04:16:57;;;;;;;17.43;7.80;;;5.20;99.90;;;;;;4157053;28;20282;-62
2021/10/08 04:18:59;;;;;;;25.23;8.17;;;5.20;99.90;;;;;;4155317;28;20270;-65
2021/10/08 04:21:00;;;;;;;16.43;7.10;;;5.20;99.90;;;;;;4156667;28;20591;-63
2021/10/08 04:23:01;;;;;;;14.13;6.37;;;5.10;99.90;;;;;;4156147;28;20279;-63
2021/10/08 04:25:03;;;;;;;12.77;6.77;;;5.10;99.90;;;;;;4157222;28;20324;-63
2021/10/08 04:27:04;;;;;;;18.30;7.70;;;5.10;99.90;;;;;;4156056;28;20275;-63
2021/10/08 04:29:05;;;;;;;22.30;7.43;;;5.10;99.90;;;;;;4156070;28;20286;-63
2021/10/08 04:31:06;;;;;;;20.73;8.20;;;5.10;99.90;;;;;;4156624;28;20305;-64
2021/10/08 04:33:15;;;;;;;17.07;8.13;;;5.10;99.90;;;;;;4166102;28;20796;-66
2021/10/08 04:35:16;;;;;;;13.93;6.80;;;5.10;99.90;;;;;;4171718;28;20386;-65
2021/10/08 04:37:17;;;;;;;17.73;7.87;;;5.00;99.90;;;;;;4171089;28;20734;-60
2021/10/08 04:39:18;;;;;;;16.17;7.73;;;5.00;99.90;;;;;;4160213;28;20294;-63
2021/10/08 04:41:19;;;;;;;15.53;7.63;;;5.00;99.90;;;;;;4154908;28;20674;-63
2021/10/08 04:43:21;;;;;;;17.33;7.63;;;4.90;99.90;;;;;;4171876;28;20278;-68
2021/10/08 04:45:22;;;;;;;25.70;10.70;;;4.90;99.90;;;;;;4155276;28;20286;-65
2021/10/08 04:47:24;;;;;;;21.40;9.40;;;5.00;99.90;;;;;;4150569;28;21052;-63
2021/10/08 04:49:26;;;;;;;38.90;8.33;;;5.00;99.90;;;;;;4164137;28;20811;-63
2021/10/08 04:51:27;;;;;;;17.77;8.33;;;5.10;99.90;;;;;;4171629;28;20688;-62
2021/10/08 04:53:28;;;;;;;20.53;9.30;;;5.10;99.90;;;;;;4169832;28;20340;-67
2021/10/08 04:55:29;;;;;;;20.03;7.53;;;5.10;99.90;;;;;;4170809;28;20331;-66
2021/10/08 04:57:30;;;;;;;24.60;8.57;;;5.10;99.90;;;;;;4171848;28;21020;-62
2021/10/08 04:59:32;;;;;;;15.97;7.20;;;5.00;99.90;;;;;;4161689;28;20282;-64
2021/10/08 05:01:33;;;;;;;16.50;7.10;;;5.00;99.90;;;;;;4158250;28;20645;-63
2021/10/08 05:03:35;;;;;;;25.77;8.93;;;5.00;99.90;;;;;;4167245;28;20324;-63
2021/10/08 05:05:36;;;;;;;21.20;8.50;;;5.10;99.90;;;;;;4156015;28;20302;-63
2021/10/08 05:07:37;;;;;;;20.03;8.57;;;5.10;99.90;;;;;;4155238;28;20816;-65
2021/10/08 05:09:39;;;;;;;21.67;8.63;;;5.30;99.90;;;;;;4156425;28;20286;-65
2021/10/08 05:11:40;;;;;;;22.60;7.83;;;5.40;99.90;;;;;;4154780;28;20271;-65
2021/10/08 05:13:41;;;;;;;23.83;8.33;;;5.40;99.90;;;;;;4156603;28;20321;-64
2021/10/08 05:15:43;;;;;;;23.37;9.13;;;5.60;99.90;;;;;;4154857;28;20282;-64
2021/10/08 05:17:44;;;;;;;41.10;9.87;;;5.80;99.90;;;;;;4156678;28;20329;-63
2021/10/08 05:19:46;;;;;;;23.13;10.33;;;6.00;99.90;;;;;;4154991;28;20341;-63
2021/10/08 05:21:48;;;;;;;49.80;13.63;;;6.30;99.90;;;;;;4156526;28;20033;-65
2021/10/08 05:23:49;;;;;;;40.30;13.20;;;6.50;99.90;;;;;;4154467;28;20262;-66
2021/10/08 05:25:50;;;;;;;36.30;10.73;;;6.80;99.90;;;;;;4155939;28;20341;-68
2021/10/08 05:27:52;;;;;;;30.43;10.97;;;7.00;99.90;;;;;;4156764;28;20100;-69
2021/10/08 05:29:53;;;;;;;38.67;10.70;;;7.20;99.90;;;;;;4159580;28;20275;-63
2021/10/08 05:31:54;;;;;;;25.67;9.43;;;7.40;99.90;;;;;;4158766;28;20021;-63
2021/10/08 05:33:55;;;;;;;27.57;11.63;;;7.60;99.90;;;;;;4158767;28;20026;-70
2021/10/08 05:35:56;;;;;;;29.33;11.23;;;7.50;99.90;;;;;;4174099;28;20024;-63
2021/10/08 05:37:57;;;;;;;29.57;9.93;;;7.40;99.90;;;;;;4157609;28;20869;-62
2021/10/08 05:39:58;;;;;;;26.40;8.20;;;7.20;99.90;;;;;;4159366;28;20064;-66
2021/10/08 05:41:59;;;;;;;25.00;11.30;;;7.10;99.90;;;;;;4157805;28;20085;-62
2021/10/08 05:44:01;;;;;;;39.67;12.13;;;7.00;99.90;;;;;;4174657;28;20041;-63
2021/10/08 05:46:02;;;;;;;44.43;12.03;;;7.10;99.90;;;;;;4158027;28;20143;-63
2021/10/08 05:48:03;;;;;;;29.93;11.77;;;7.40;99.90;;;;;;4159319;28;20453;-62
2021/10/08 05:50:05;;;;;;;31.20;10.70;;;7.80;99.90;;;;;;4157649;28;20108;-64
2021/10/08 05:52:06;;;;;;;34.07;11.40;;;8.00;99.90;;;;;;4158960;28;20041;-69
2021/10/08 05:54:07;;;;;;;35.03;9.80;;;8.10;99.90;;;;;;4157210;28;20710;-64
2021/10/08 05:56:08;;;;;;;29.67;10.40;;;8.00;99.90;;;;;;4158482;28;20635;-67
2021/10/08 05:58:09;;;;;;;26.20;8.80;;;7.80;99.90;;;;;;4157502;28;20033;-65
2021/10/08 06:00:11;;;;;;;29.87;9.27;;;7.80;99.90;;;;;;4158794;28;20041;-66
2021/10/08 06:02:12;;;;;;;26.13;8.50;;;8.00;99.90;;;;;;4158072;28;20065;-63
2021/10/08 06:04:13;;;;;;;29.10;9.00;;;8.30;99.90;;;;;;4157979;28;20029;-63
2021/10/08 06:06:14;;;;;;;25.63;7.43;;;8.40;99.90;;;;;;4157745;28;20045;-64
2021/10/08 06:08:15;;;;;;;26.17;8.30;;;8.10;99.90;;;;;;4157465;28;20064;-63
2021/10/08 06:10:17;;;;;;;20.03;7.57;;;7.80;99.90;;;;;;4159083;28;20812;-63
2021/10/08 06:12:18;;;;;;;14.63;7.60;;;7.60;99.90;;;;;;4157659;28;20083;-63
2021/10/08 06:14:19;;;;;;;23.83;9.07;;;7.50;99.90;;;;;;4159710;28;20038;-63
2021/10/08 06:16:20;;;;;;;27.53;9.23;;;7.50;99.90;;;;;;4156895;28;20029;-62
2021/10/08 06:18:21;;;;;;;24.30;10.23;;;7.60;99.90;;;;;;4159070;28;20456;-63
2021/10/08 06:20:25;;;;;;;29.23;9.40;;;7.60;99.90;;;;;;4157716;28;20083;-62
2021/10/08 06:22:26;;;;;;;19.40;7.97;;;7.70;99.90;;;;;;4159138;28;20731;-62
2021/10/08 06:24:28;;;;;;;22.60;9.00;;;7.80;99.90;;;;;;4157214;28;20397;-64
2021/10/08 06:26:29;;;;;;;23.73;9.07;;;8.20;99.90;;;;;;4159433;28;20095;-64
2021/10/08 06:28:30;;;;;;;21.83;8.93;;;8.40;99.90;;;;;;4189226;28;20097;-63
2021/10/08 06:30:31;;;;;;;22.70;9.70;;;8.70;99.90;;;;;;4158281;28;20079;-67
2021/10/08 06:32:32;;;;;;;17.80;7.67;;;8.90;99.90;;;;;;4157803;28;20091;-62
2021/10/08 06:34:36;;;;;;;20.83;8.13;;;9.00;99.90;;;;;;4157994;28;20029;-62
2021/10/08 06:36:37;;;;;;;17.53;7.70;;;9.10;99.90;;;;;;4158282;28;20022;-64
2021/10/08 06:38:38;;;;;;;15.17;7.03;;;9.20;99.90;;;;;;4157627;28;20037;-64
2021/10/08 06:40:41;;;;;;;16.70;6.80;;;9.30;99.90;;;;;;4158730;28;20501;-63
2021/10/08 06:42:42;;;;;;;17.47;6.83;;;9.60;99.90;;;;;;4157160;28;20049;-63
2021/10/08 06:44:43;;;;;;;17.53;5.70;;;9.90;99.90;;;;;;4158686;28;20091;-62
2021/10/08 06:46:44;;;;;;;13.93;7.33;;;10.20;99.90;;;;;;4156440;28;20972;-63
2021/10/08 06:48:45;;;;;;;12.53;5.57;;;10.20;99.50;;;;;;4158610;28;20025;-63
2021/10/08 06:50:47;;;;;;;15.33;5.80;;;10.30;99.50;;;;;;4156617;28;20401;-66
2021/10/08 06:52:48;;;;;;;17.43;6.67;;;10.30;99.20;;;;;;4158860;28;20053;-62
2021/10/08 06:54:49;;;;;;;12.53;5.57;;;10.40;99.00;;;;;;4157102;28;20099;-63
2021/10/08 06:56:50;;;;;;;17.47;6.57;;;10.30;98.50;;;;;;4158456;28;20095;-66
2021/10/08 06:58:51;;;;;;;13.87;5.77;;;10.10;98.40;;;;;;4156965;28;20448;-62
2021/10/08 07:00:54;;;;;;;14.10;6.53;;;10.10;98.60;;;;;;4158367;28;20041;-63
2021/10/08 07:02:57;;;;;;;22.67;6.13;;;10.20;98.60;;;;;;4157122;28;20083;-63
2021/10/08 07:04:58;;;;;;;13.50;5.93;;;10.50;98.20;;;;;;4157710;28;20421;-62
2021/10/08 07:06:59;;;;;;;19.80;6.47;;;10.80;97.90;;;;;;4156934;28;20484;-63
2021/10/08 07:09:01;;;;;;;18.90;6.70;;;10.80;97.30;;;;;;4156971;28;20029;-63
2021/10/08 07:11:02;;;;;;;14.93;6.70;;;10.60;97.50;;;;;;4158163;28;20099;-64
2021/10/08 07:13:03;;;;;;;16.50;6.47;;;10.70;97.70;;;;;;4156826;28;20467;-63
2021/10/08 07:15:11;;;;;;;14.73;7.23;;;10.80;97.50;;;;;;4158799;28;20083;-63
2021/10/08 07:17:12;;;;;;;15.57;6.67;;;10.90;97.40;;;;;;4156676;28;20033;-63
2021/10/08 07:19:15;;;;;;;23.50;6.97;;;10.80;97.30;;;;;;4158520;28;20425;-63
2021/10/08 07:21:16;;;;;;;24.40;7.80;;;10.70;97.50;;;;;;4156749;28;20111;-63
2021/10/08 07:23:18;;;;;;;18.70;8.53;;;10.80;97.30;;;;;;4157529;28;20037;-63
2021/10/08 07:25:22;;;;;;;17.10;7.30;;;10.60;97.30;;;;;;4156053;28;20511;-63
2021/10/08 07:27:23;;;;;;;21.77;8.13;;;10.60;97.40;;;;;;4157970;28;20768;-63
2021/10/08 07:29:24;;;;;;;22.40;6.37;;;10.70;97.20;;;;;;4156082;28;20051;-62
2021/10/08 07:31:27;;;;;;;17.80;5.27;;;10.90;97.20;;;;;;4157821;28;20091;-64
2021/10/08 07:33:28;;;;;;;15.83;5.80;;;11.10;96.70;;;;;;4155724;28;20068;-64
2021/10/08 07:35:29;;;;;;;15.37;5.70;;;11.20;96.00;;;;;;4157493;28;20550;-63
2021/10/08 07:37:31;;;;;;;11.33;5.23;;;11.10;95.70;;;;;;4154443;28;20501;-64
2021/10/08 07:39:32;;;;;;;14.23;4.97;;;11.20;95.50;;;;;;4156486;28;20095;-63
2021/10/08 07:41:34;;;;;;;15.23;5.30;;;11.20;95.40;;;;;;4156554;28;20107;-63
2021/10/08 07:43:37;;;;;;;11.53;4.67;;;11.10;94.30;;;;;;4156085;28;20025;-63
2021/10/08 07:45:38;;;;;;;14.30;5.43;;;10.90;94.30;;;;;;4157892;28;20379;-62
2021/10/08 07:47:39;;;;;;;16.27;6.33;;;10.70;94.70;;;;;;4155911;28;20045;-65
2021/10/08 07:49:40;;;;;;;13.93;5.70;;;10.80;95.20;;;;;;4157636;28;20618;-62
2021/10/08 07:51:41;;;;;;;14.57;5.07;;;11.00;95.10;;;;;;4155435;28;20047;-63
2021/10/08 07:53:42;;;;;;;17.13;5.63;;;11.30;94.60;;;;;;4157644;28;20025;-64
2021/10/08 07:55:44;;;;;;;17.63;6.23;;;11.50;94.20;;;;;;4155500;28;20729;-63
2021/10/08 07:57:45;;;;;;;18.23;6.33;;;11.70;94.10;;;;;;4157817;28;20045;-63
2021/10/08 07:59:46;;;;;;;20.97;5.17;;;11.60;93.80;;;;;;4155465;28;20068;-63
2021/10/08 08:01:47;;;;;;;16.70;4.57;;;11.60;93.80;;;;;;4157495;28;20095;-69
2021/10/08 08:03:48;;;;;;;14.93;4.67;;;11.60;93.60;;;;;;4155413;28;20532;-63
2021/10/08 08:05:50;;;;;;;10.53;4.90;;;11.60;93.70;;;;;;4157016;28;20087;-63
2021/10/08 08:07:51;;;;;;;8.63;4.03;;;11.50;93.50;;;;;;4155548;28;20042;-63
2021/10/08 08:09:52;;;;;;;11.03;4.13;;;11.40;93.30;;;;;;4156263;28;20455;-64
2021/10/08 08:11:53;;;;;;;13.17;4.20;;;11.50;93.40;;;;;;4155981;28;20033;-64
2021/10/08 08:13:55;;;;;;;16.13;4.93;;;11.40;93.40;;;;;;4155745;28;20105;-62
2021/10/08 08:15:56;;;;;;;17.07;4.87;;;11.30;93.30;;;;;;4157403;28;20079;-63
2021/10/08 08:17:57;;;;;;;12.47;5.70;;;11.40;93.40;;;;;;4155689;28;20045;-64
2021/10/08 08:19:58;;;;;;;13.97;4.43;;;11.40;93.20;;;;;;4157207;28;20121;-63
2021/10/08 08:21:59;;;;;;;15.07;5.33;;;11.40;93.20;;;;;;4154895;28;20763;-65
2021/10/08 08:24:00;;;;;;;9.57;3.87;;;11.50;93.00;;;;;;4157763;28;20100;-62
2021/10/08 08:26:01;;;;;;;13.77;5.40;;;11.60;93.10;;;;;;4155324;28;20091;-64
2021/10/08 08:28:02;;;;;;;12.10;4.43;;;11.50;92.90;;;;;;4157034;28;20033;-64
2021/10/08 08:30:06;;;;;;;13.27;4.20;;;11.50;93.10;;;;;;4154676;28;20041;-63
2021/10/08 08:32:09;;;;;;;14.67;5.07;;;11.40;92.80;;;;;;4171369;28;20899;-64
2021/10/08 08:34:10;;;;;;;10.50;4.03;;;11.20;93.10;;;;;;4153938;28;20045;-63
2021/10/08 08:36:11;;;;;;;10.27;4.13;;;11.30;93.20;;;;;;4157398;28;20041;-64
2021/10/08 08:38:12;;;;;;;11.97;4.63;;;11.50;93.20;;;;;;4155385;28;20079;-63
2021/10/08 08:40:14;;;;;;;9.53;4.50;;;11.60;93.20;;;;;;4156237;28;20033;-64
2021/10/08 08:42:19;;;;;;;7.97;4.40;;;11.70;92.90;;;;;;4155442;28;20037;-64
2021/10/08 08:44:21;;;;;;;9.97;4.33;;;11.80;92.80;;;;;;4155543;28;20103;-63
2021/10/08 08:46:22;;;;;;;9.97;4.73;;;11.80;92.70;;;;;;4156223;28;20551;-63
2021/10/08 08:48:23;;;;;;;8.63;4.87;;;11.90;92.40;;;;;;4155339;28;20063;-64
2021/10/08 08:50:25;;;;;;;14.50;4.93;;;11.80;92.20;;;;;;4157067;28;20037;-64
2021/10/08 08:52:26;;;;;;;11.33;4.43;;;11.80;92.30;;;;;;4154866;28;20859;-63
2021/10/08 08:54:28;;;;;;;14.70;4.50;;;11.80;92.10;;;;;;4156753;28;20038;-64
2021/10/08 08:56:29;;;;;;;11.47;4.33;;;11.90;92.10;;;;;;4154667;28;20047;-64
2021/10/08 08:58:30;;;;;;;8.63;4.50;;;11.90;91.80;;;;;;4157002;28;20454;-63
2021/10/08 09:00:32;;;;;;;17.77;4.53;;;12.00;91.80;;;;;;4154628;28;20124;-66
2021/10/08 09:02:35;;;;;;;10.17;4.30;;;12.00;91.60;;;;;;4155549;28;20474;-62
2021/10/08 09:04:36;;;;;;;15.93;3.93;;;12.00;91.40;;;;;;4154507;28;20890;-62
2021/10/08 09:06:40;;;;;;;12.63;4.60;;;11.90;91.50;;;;;;4156206;28;20080;-62
2021/10/08 09:08:45;;;;;;;9.97;4.13;;;11.90;90.90;;;;;;4154267;28;20037;-63
2021/10/08 09:10:48;;;;;;;12.53;3.87;;;11.80;90.60;;;;;;4155678;28;20075;-62
2021/10/08 09:12:53;;;;;;;12.80;4.70;;;11.60;90.30;;;;;;4154972;28;20017;-62
2021/10/08 09:14:58;;;;;;;9.60;3.93;;;11.60;90.80;;;;;;4171170;28;20071;-66
2021/10/08 09:17:10;;;;;;;9.07;3.37;;;11.50;90.90;;;;;;4155332;28;20865;-63
2021/10/08 09:19:11;;;;;;;15.47;3.40;;;11.30;88.50;;;;;;4155747;28;20299;-64
2021/10/08 09:21:16;;;;;;;15.00;3.80;;;11.30;89.30;;;;;;4155095;28;20098;-64
2021/10/08 09:23:17;;;;;;;10.83;4.03;;;11.30;89.00;;;;;;4155619;28;20463;-63
2021/10/08 09:25:33;;;;;;;9.53;3.93;;;11.30;89.20;;;;;;4155629;28;20029;-64
2021/10/08 09:27:37;;;;;;;13.20;4.60;;;11.30;87.50;;;;;;4155329;28;20147;-63
2021/10/08 09:29:47;;;;;;;14.73;4.47;;;11.20;88.10;;;;;;4155281;28;20021;-64
2021/10/08 09:31:52;;;;;;;6.93;3.10;;;11.20;88.80;;;;;;4154957;28;20025;-63
2021/10/08 09:34:15;;;;;;;7.03;3.80;;;11.30;87.90;;;;;;4155118;28;20091;-63
2021/10/08 09:36:18;;;;;;;11.47;3.83;;;11.20;87.70;;;;;;4154892;28;20185;-64
2021/10/08 09:38:20;;;;;;;13.03;4.13;;;11.20;87.00;;;;;;4155566;28;20095;-63
2021/10/08 09:40:31;;;;;;;11.67;4.60;;;11.30;87.20;;;;;;4154545;28;20026;-65
2021/10/08 09:42:34;;;;;;;9.43;3.77;;;11.30;86.80;;;;;;4155810;28;20080;-64
2021/10/08 09:44:50;;;;;;;12.83;4.03;;;11.30;87.20;;;;;;4154709;28;20029;-64
2021/10/08 09:46:52;;;;;;;10.90;4.20;;;11.40;86.60;;;;;;4155686;28;20433;-63
2021/10/08 09:48:53;;;;;;;10.27;3.70;;;11.40;87.30;;;;;;4154276;28;20030;-63
2021/10/08 09:51:08;;;;;;;10.87;4.00;;;11.40;86.70;;;;;;4156059;28;20045;-63
2021/10/08 09:53:14;;;;;;;14.73;4.20;;;11.30;85.90;;;;;;4154527;28;20759;-63
2021/10/08 09:55:15;;;;;;;10.73;4.17;;;11.30;86.80;;;;;;4155531;28;20120;-62
2021/10/08 09:57:17;;;;;;;11.77;4.90;;;11.30;86.60;;;;;;4154105;28;20481;-63
2021/10/08 09:59:18;;;;;;;11.73;4.23;;;11.30;86.80;;;;;;4156200;28;20486;-63
2021/10/08 10:01:27;;;;;;;9.97;4.60;;;11.40;86.70;;;;;;4154332;28;20037;-64
2021/10/08 10:03:30;;;;;;;13.10;4.03;;;11.30;86.80;;;;;;4155876;28;20031;-65
2021/10/08 10:05:33;;;;;;;12.37;4.20;;;11.40;86.50;;;;;;4154295;28;20127;-64
2021/10/08 10:07:35;;;;;;;11.63;4.50;;;11.30;85.60;;;;;;4155959;28;20041;-63
2021/10/08 10:09:36;;;;;;;10.30;4.27;;;11.20;84.70;;;;;;4155049;28;20037;-64
2021/10/08 10:11:39;;;;;;;13.57;3.97;;;11.30;84.80;;;;;;4155661;28;20029;-63
2021/10/08 10:13:41;;;;;;;8.37;3.77;;;11.30;85.20;;;;;;4155436;28;20462;-62
2021/10/08 10:15:44;;;;;;;11.50;4.47;;;11.30;85.00;;;;;;4159294;28;20037;-66
2021/10/08 10:17:47;;;;;;;16.63;5.43;;;11.30;85.50;;;;;;4157922;28;20041;-63
2021/10/08 10:19:49;;;;;;;7.40;3.27;;;11.40;85.20;;;;;;4158729;28;20030;-67
2021/10/08 10:21:53;;;;;;;9.47;3.63;;;11.40;85.00;;;;;;4157887;28;20490;-65
2021/10/08 10:23:57;;;;;;;11.97;4.27;;;11.50;85.00;;;;;;4158175;28;20472;-64
2021/10/08 10:25:58;;;;;;;15.17;4.60;;;11.50;84.90;;;;;;4157477;28;20845;-68
2021/10/08 10:28:00;;;;;;;13.67;4.40;;;11.50;85.40;;;;;;4157609;28;20057;-64
2021/10/08 10:30:04;;;;;;;15.47;4.80;;;11.60;85.60;;;;;;4158633;28;20068;-64
2021/10/08 10:32:07;;;;;;;13.50;5.27;;;11.70;85.40;;;;;;4157187;28;20105;-63